sensor_id;sensor_type;location;lat;lon;timestamp;P1;durP1;ratioP1;P2;durP2;ratioP2
36715;SDS011;22699;51.034;3.730;2023-03-14T00:00:13;5.78;;;1.45;;
36715;SDS011;22699;51.034;3.730;2023-03-14T00:02:39;5.95;;;1.52;;
36715;SDS011;22699;51.034;3.730;2023-03-14T00:05:07;4.55;;;1.13;;
36715;SDS011;22699;51.034;3.730;2023-03-14T00:07:34;5.97;;;1.40;;
36715;SDS011;22699;51.034;3.730;2023-03-14T00:10:07;4.63;;;1.60;;
36715;SDS011;22699;51.034;3.730;2023-03-14T00:12:35;4.68;;;1.23;;
36715;SDS011;22699;51.034;3.730;2023-03-14T00:15:01;7.43;;;1.63;;
36715;SDS011;22699;51.034;3.730;2023-03-14T00:17:29;7.68;;;1.67;;
36715;SDS011;22699;51.034;3.730;2023-03-14T00:19:55;5.18;;;1.02;;
36715;SDS011;22699;51.034;3.730;2023-03-14T00:22:22;9.52;;;1.85;;
36715;SDS011;22699;51.034;3.730;2023-03-14T00:24:48;5.53;;;1.38;;
36715;SDS011;22699;51.034;3.730;2023-03-14T00:27:13;6.32;;;1.15;;
36715;SDS011;22699;51.034;3.730;2023-03-14T00:29:42;6.05;;;1.52;;
36715;SDS011;22699;51.034;3.730;2023-03-14T00:32:08;10.43;;;1.80;;
36715;SDS011;22699;51.034;3.730;2023-03-14T00:34:36;6.90;;;1.30;;
36715;SDS011;22699;51.034;3.730;2023-03-14T00:37:02;9.48;;;2.05;;
36715;SDS011;22699;51.034;3.730;2023-03-14T00:39:27;9.23;;;1.50;;
36715;SDS011;22699;51.034;3.730;2023-03-14T00:41:55;5.47;;;1.60;;
36715;SDS011;22699;51.034;3.730;2023-03-14T00:44:28;10.93;;;2.35;;
36715;SDS011;22699;51.034;3.730;2023-03-14T00:46:53;8.82;;;1.80;;
36715;SDS011;22699;51.034;3.730;2023-03-14T00:49:20;10.10;;;2.30;;
36715;SDS011;22699;51.034;3.730;2023-03-14T00:51:46;12.68;;;2.08;;
36715;SDS011;22699;51.034;3.730;2023-03-14T00:54:12;11.98;;;1.95;;
36715;SDS011;22699;51.034;3.730;2023-03-14T00:56:37;7.57;;;2.03;;
36715;SDS011;22699;51.034;3.730;2023-03-14T00:59:05;11.85;;;1.98;;
36715;SDS011;22699;51.034;3.730;2023-03-14T01:01:30;11.48;;;2.08;;
36715;SDS011;22699;51.034;3.730;2023-03-14T01:03:57;15.98;;;2.15;;
36715;SDS011;22699;51.034;3.730;2023-03-14T01:06:26;9.18;;;2.45;;
36715;SDS011;22699;51.034;3.730;2023-03-14T01:08:54;10.05;;;1.80;;
36715;SDS011;22699;51.034;3.730;2023-03-14T01:11:22;11.05;;;2.13;;
36715;SDS011;22699;51.034;3.730;2023-03-14T01:13:50;9.93;;;2.00;;
36715;SDS011;22699;51.034;3.730;2023-03-14T01:16:16;9.20;;;1.42;;
36715;SDS011;22699;51.034;3.730;2023-03-14T01:18:43;13.40;;;2.70;;
36715;SDS011;22699;51.034;3.730;2023-03-14T01:21:13;9.15;;;1.92;;
36715;SDS011;22699;51.034;3.730;2023-03-14T01:23:41;10.57;;;2.13;;
36715;SDS011;22699;51.034;3.730;2023-03-14T01:26:11;12.43;;;1.80;;
36715;SDS011;22699;51.034;3.730;2023-03-14T01:31:08;12.43;;;2.13;;
36715;SDS011;22699;51.034;3.730;2023-03-14T01:33:34;14.80;;;2.60;;
36715;SDS011;22699;51.034;3.730;2023-03-14T01:36:01;13.10;;;2.10;;
36715;SDS011;22699;51.034;3.730;2023-03-14T01:38:33;10.45;;;1.88;;
36715;SDS011;22699;51.034;3.730;2023-03-14T01:41:03;10.82;;;2.20;;
36715;SDS011;22699;51.034;3.730;2023-03-14T01:43:30;10.85;;;1.80;;
36715;SDS011;22699;51.034;3.730;2023-03-14T01:48:48;11.73;;;2.00;;
36715;SDS011;22699;51.034;3.730;2023-03-14T01:53:54;9.88;;;1.60;;
36715;SDS011;22699;51.034;3.730;2023-03-14T01:56:44;5.90;;;2.17;;
36715;SDS011;22699;51.034;3.730;2023-03-14T01:59:13;8.95;;;1.52;;
36715;SDS011;22699;51.034;3.730;2023-03-14T02:01:39;8.75;;;1.40;;
36715;SDS011;22699;51.034;3.730;2023-03-14T02:04:10;5.63;;;1.45;;
36715;SDS011;22699;51.034;3.730;2023-03-14T02:07:19;10.07;;;1.83;;
36715;SDS011;22699;51.034;3.730;2023-03-14T02:09:31;12.80;;;1.42;;
36715;SDS011;22699;51.034;3.730;2023-03-14T02:11:58;10.00;;;1.42;;
36715;SDS011;22699;51.034;3.730;2023-03-14T02:14:30;8.15;;;1.73;;
36715;SDS011;22699;51.034;3.730;2023-03-14T02:16:58;5.70;;;1.15;;
36715;SDS011;22699;51.034;3.730;2023-03-14T02:22:08;7.55;;;1.38;;
36715;SDS011;22699;51.034;3.730;2023-03-14T02:32:10;4.28;;;1.20;;
36715;SDS011;22699;51.034;3.730;2023-03-14T02:34:38;8.88;;;0.75;;
36715;SDS011;22699;51.034;3.730;2023-03-14T02:37:06;2.80;;;0.80;;
36715;SDS011;22699;51.034;3.730;2023-03-14T02:39:41;4.65;;;1.25;;
36715;SDS011;22699;51.034;3.730;2023-03-14T02:42:09;8.38;;;1.20;;
36715;SDS011;22699;51.034;3.730;2023-03-14T02:44:48;3.80;;;1.13;;
36715;SDS011;22699;51.034;3.730;2023-03-14T02:47:22;6.68;;;0.93;;
36715;SDS011;22699;51.034;3.730;2023-03-14T02:49:56;6.65;;;1.00;;
36715;SDS011;22699;51.034;3.730;2023-03-14T02:52:26;5.45;;;1.20;;
36715;SDS011;22699;51.034;3.730;2023-03-14T02:54:53;6.03;;;1.15;;
36715;SDS011;22699;51.034;3.730;2023-03-14T02:57:19;4.95;;;0.98;;
36715;SDS011;22699;51.034;3.730;2023-03-14T02:59:44;5.95;;;1.20;;
36715;SDS011;22699;51.034;3.730;2023-03-14T03:02:11;7.15;;;1.05;;
36715;SDS011;22699;51.034;3.730;2023-03-14T03:04:38;6.93;;;1.20;;
36715;SDS011;22699;51.034;3.730;2023-03-14T03:07:04;5.40;;;1.40;;
36715;SDS011;22699;51.034;3.730;2023-03-14T03:09:31;5.30;;;1.23;;
36715;SDS011;22699;51.034;3.730;2023-03-14T03:11:58;7.72;;;1.40;;
36715;SDS011;22699;51.034;3.730;2023-03-14T03:14:29;6.43;;;1.58;;
36715;SDS011;22699;51.034;3.730;2023-03-14T03:16:56;6.57;;;1.50;;
36715;SDS011;22699;51.034;3.730;2023-03-14T03:19:21;7.93;;;1.67;;
36715;SDS011;22699;51.034;3.730;2023-03-14T03:21:47;4.10;;;1.27;;
36715;SDS011;22699;51.034;3.730;2023-03-14T03:24:14;8.38;;;2.75;;
36715;SDS011;22699;51.034;3.730;2023-03-14T03:26:41;7.43;;;1.90;;
36715;SDS011;22699;51.034;3.730;2023-03-14T03:29:09;7.10;;;1.65;;
36715;SDS011;22699;51.034;3.730;2023-03-14T03:31:37;6.65;;;1.40;;
36715;SDS011;22699;51.034;3.730;2023-03-14T03:34:06;6.57;;;2.00;;
36715;SDS011;22699;51.034;3.730;2023-03-14T03:36:35;7.10;;;2.00;;
36715;SDS011;22699;51.034;3.730;2023-03-14T03:39:01;5.43;;;1.83;;
36715;SDS011;22699;51.034;3.730;2023-03-14T03:43:57;6.97;;;2.67;;
36715;SDS011;22699;51.034;3.730;2023-03-14T03:46:23;12.20;;;3.22;;
36715;SDS011;22699;51.034;3.730;2023-03-14T03:48:53;10.85;;;2.22;;
36715;SDS011;22699;51.034;3.730;2023-03-14T03:51:20;9.65;;;2.25;;
36715;SDS011;22699;51.034;3.730;2023-03-14T03:53:45;8.85;;;3.15;;
36715;SDS011;22699;51.034;3.730;2023-03-14T03:56:12;7.72;;;3.17;;
36715;SDS011;22699;51.034;3.730;2023-03-14T03:58:38;7.82;;;2.40;;
36715;SDS011;22699;51.034;3.730;2023-03-14T04:01:04;6.47;;;2.47;;
36715;SDS011;22699;51.034;3.730;2023-03-14T04:03:31;5.10;;;2.33;;
36715;SDS011;22699;51.034;3.730;2023-03-14T04:06:11;12.25;;;3.05;;
36715;SDS011;22699;51.034;3.730;2023-03-14T04:08:38;7.40;;;3.35;;
36715;SDS011;22699;51.034;3.730;2023-03-14T04:11:07;9.52;;;3.85;;
36715;SDS011;22699;51.034;3.730;2023-03-14T04:13:33;8.70;;;4.28;;
36715;SDS011;22699;51.034;3.730;2023-03-14T04:16:00;10.90;;;4.40;;
36715;SDS011;22699;51.034;3.730;2023-03-14T04:18:25;12.25;;;3.92;;
36715;SDS011;22699;51.034;3.730;2023-03-14T04:20:54;9.93;;;3.88;;
36715;SDS011;22699;51.034;3.730;2023-03-14T04:23:21;9.68;;;4.72;;
36715;SDS011;22699;51.034;3.730;2023-03-14T04:25:51;12.60;;;5.10;;
36715;SDS011;22699;51.034;3.730;2023-03-14T04:30:50;7.63;;;5.00;;
36715;SDS011;22699;51.034;3.730;2023-03-14T04:33:18;9.70;;;5.07;;
36715;SDS011;22699;51.034;3.730;2023-03-14T04:35:45;11.15;;;5.05;;
36715;SDS011;22699;51.034;3.730;2023-03-14T04:38:11;7.97;;;4.90;;
36715;SDS011;22699;51.034;3.730;2023-03-14T04:40:38;8.82;;;4.22;;
36715;SDS011;22699;51.034;3.730;2023-03-14T04:43:07;13.05;;;4.28;;
36715;SDS011;22699;51.034;3.730;2023-03-14T04:45:35;7.00;;;3.15;;
36715;SDS011;22699;51.034;3.730;2023-03-14T04:48:02;10.13;;;3.60;;
36715;SDS011;22699;51.034;3.730;2023-03-14T04:50:28;7.18;;;2.80;;
36715;SDS011;22699;51.034;3.730;2023-03-14T04:52:54;5.18;;;2.13;;
36715;SDS011;22699;51.034;3.730;2023-03-14T04:55:19;4.30;;;1.80;;
36715;SDS011;22699;51.034;3.730;2023-03-14T04:57:48;4.50;;;1.50;;
36715;SDS011;22699;51.034;3.730;2023-03-14T05:00:14;4.53;;;1.58;;
36715;SDS011;22699;51.034;3.730;2023-03-14T05:05:13;4.63;;;1.25;;
36715;SDS011;22699;51.034;3.730;2023-03-14T05:07:40;3.25;;;1.30;;
36715;SDS011;22699;51.034;3.730;2023-03-14T05:10:06;2.00;;;1.00;;
36715;SDS011;22699;51.034;3.730;2023-03-14T05:12:33;3.65;;;1.23;;
36715;SDS011;22699;51.034;3.730;2023-03-14T05:15:00;2.72;;;1.10;;
36715;SDS011;22699;51.034;3.730;2023-03-14T05:17:28;5.97;;;1.80;;
36715;SDS011;22699;51.034;3.730;2023-03-14T05:19:55;5.50;;;1.70;;
36715;SDS011;22699;51.034;3.730;2023-03-14T05:22:22;3.33;;;1.50;;
36715;SDS011;22699;51.034;3.730;2023-03-14T05:24:48;5.07;;;1.23;;
36715;SDS011;22699;51.034;3.730;2023-03-14T05:27:13;7.72;;;1.48;;
36715;SDS011;22699;51.034;3.730;2023-03-14T05:29:40;5.80;;;1.70;;
36715;SDS011;22699;51.034;3.730;2023-03-14T05:32:06;5.95;;;1.30;;
36715;SDS011;22699;51.034;3.730;2023-03-14T05:34:33;7.35;;;1.65;;
36715;SDS011;22699;51.034;3.730;2023-03-14T05:37:01;4.32;;;2.10;;
36715;SDS011;22699;51.034;3.730;2023-03-14T05:39:28;4.38;;;1.73;;
36715;SDS011;22699;51.034;3.730;2023-03-14T05:41:55;4.05;;;1.67;;
36715;SDS011;22699;51.034;3.730;2023-03-14T05:44:30;3.53;;;1.90;;
36715;SDS011;22699;51.034;3.730;2023-03-14T05:46:56;9.63;;;2.92;;
36715;SDS011;22699;51.034;3.730;2023-03-14T05:49:25;5.50;;;3.10;;
36715;SDS011;22699;51.034;3.730;2023-03-14T05:51:52;5.72;;;2.90;;
36715;SDS011;22699;51.034;3.730;2023-03-14T05:54:25;5.22;;;2.70;;
36715;SDS011;22699;51.034;3.730;2023-03-14T05:56:50;6.10;;;3.45;;
36715;SDS011;22699;51.034;3.730;2023-03-14T05:59:17;8.63;;;3.80;;
36715;SDS011;22699;51.034;3.730;2023-03-14T06:01:49;7.07;;;3.08;;
36715;SDS011;22699;51.034;3.730;2023-03-14T06:04:18;10.38;;;3.47;;
36715;SDS011;22699;51.034;3.730;2023-03-14T06:06:46;12.05;;;4.38;;
36715;SDS011;22699;51.034;3.730;2023-03-14T06:09:12;5.63;;;2.47;;
36715;SDS011;22699;51.034;3.730;2023-03-14T06:11:38;4.57;;;2.03;;
36715;SDS011;22699;51.034;3.730;2023-03-14T06:14:03;2.88;;;1.70;;
36715;SDS011;22699;51.034;3.730;2023-03-14T06:16:29;6.97;;;1.92;;
36715;SDS011;22699;51.034;3.730;2023-03-14T06:18:55;5.57;;;2.42;;
36715;SDS011;22699;51.034;3.730;2023-03-14T06:21:21;6.72;;;1.50;;
36715;SDS011;22699;51.034;3.730;2023-03-14T06:23:47;5.47;;;1.70;;
36715;SDS011;22699;51.034;3.730;2023-03-14T06:26:12;5.28;;;1.63;;
36715;SDS011;22699;51.034;3.730;2023-03-14T06:28:38;4.35;;;1.42;;
36715;SDS011;22699;51.034;3.730;2023-03-14T06:31:04;4.20;;;1.60;;
36715;SDS011;22699;51.034;3.730;2023-03-14T06:33:31;4.72;;;2.25;;
36715;SDS011;22699;51.034;3.730;2023-03-14T06:35:58;6.35;;;2.13;;
36715;SDS011;22699;51.034;3.730;2023-03-14T06:38:23;6.20;;;2.22;;
36715;SDS011;22699;51.034;3.730;2023-03-14T06:40:52;8.30;;;3.08;;
36715;SDS011;22699;51.034;3.730;2023-03-14T06:45:48;5.03;;;2.28;;
36715;SDS011;22699;51.034;3.730;2023-03-14T06:48:13;7.57;;;3.17;;
36715;SDS011;22699;51.034;3.730;2023-03-14T06:50:41;6.32;;;2.63;;
36715;SDS011;22699;51.034;3.730;2023-03-14T06:53:07;4.95;;;2.90;;
36715;SDS011;22699;51.034;3.730;2023-03-14T06:55:34;8.10;;;4.07;;
36715;SDS011;22699;51.034;3.730;2023-03-14T06:58:00;9.82;;;3.38;;
36715;SDS011;22699;51.034;3.730;2023-03-14T07:00:26;5.97;;;3.42;;
36715;SDS011;22699;51.034;3.730;2023-03-14T07:02:53;8.95;;;3.88;;
36715;SDS011;22699;51.034;3.730;2023-03-14T07:05:22;7.45;;;4.15;;
36715;SDS011;22699;51.034;3.730;2023-03-14T07:07:50;11.10;;;4.00;;
36715;SDS011;22699;51.034;3.730;2023-03-14T07:10:16;11.93;;;4.10;;
36715;SDS011;22699;51.034;3.730;2023-03-14T07:12:43;7.03;;;3.60;;
36715;SDS011;22699;51.034;3.730;2023-03-14T07:15:08;6.93;;;3.60;;
36715;SDS011;22699;51.034;3.730;2023-03-14T07:17:35;4.15;;;3.40;;
36715;SDS011;22699;51.034;3.730;2023-03-14T07:20:01;6.22;;;3.17;;
36715;SDS011;22699;51.034;3.730;2023-03-14T07:22:30;7.82;;;3.85;;
36715;SDS011;22699;51.034;3.730;2023-03-14T07:24:57;7.43;;;3.83;;
36715;SDS011;22699;51.034;3.730;2023-03-14T07:27:24;8.57;;;3.70;;
36715;SDS011;22699;51.034;3.730;2023-03-14T07:29:50;7.88;;;3.70;;
36715;SDS011;22699;51.034;3.730;2023-03-14T07:32:16;9.63;;;3.60;;
36715;SDS011;22699;51.034;3.730;2023-03-14T07:34:43;11.25;;;2.92;;
36715;SDS011;22699;51.034;3.730;2023-03-14T07:37:11;5.63;;;2.88;;
36715;SDS011;22699;51.034;3.730;2023-03-14T07:39:38;6.28;;;2.90;;
36715;SDS011;22699;51.034;3.730;2023-03-14T07:42:06;6.00;;;2.28;;
36715;SDS011;22699;51.034;3.730;2023-03-14T07:44:32;5.43;;;2.40;;
36715;SDS011;22699;51.034;3.730;2023-03-14T07:46:58;11.23;;;4.13;;
36715;SDS011;22699;51.034;3.730;2023-03-14T07:49:26;5.68;;;2.20;;
36715;SDS011;22699;51.034;3.730;2023-03-14T07:51:52;9.18;;;2.72;;
36715;SDS011;22699;51.034;3.730;2023-03-14T07:54:18;6.82;;;2.75;;
36715;SDS011;22699;51.034;3.730;2023-03-14T07:56:45;5.85;;;2.20;;
36715;SDS011;22699;51.034;3.730;2023-03-14T07:59:11;7.45;;;2.25;;
36715;SDS011;22699;51.034;3.730;2023-03-14T08:01:38;7.28;;;2.65;;
36715;SDS011;22699;51.034;3.730;2023-03-14T08:04:04;3.20;;;1.83;;
36715;SDS011;22699;51.034;3.730;2023-03-14T08:06:35;5.63;;;2.17;;
36715;SDS011;22699;51.034;3.730;2023-03-14T08:09:07;5.78;;;2.40;;
36715;SDS011;22699;51.034;3.730;2023-03-14T08:11:34;3.72;;;2.38;;
36715;SDS011;22699;51.034;3.730;2023-03-14T08:14:00;8.18;;;2.58;;
36715;SDS011;22699;51.034;3.730;2023-03-14T08:16:34;6.45;;;3.22;;
36715;SDS011;22699;51.034;3.730;2023-03-14T08:19:01;4.78;;;2.80;;
36715;SDS011;22699;51.034;3.730;2023-03-14T08:21:27;6.00;;;2.75;;
36715;SDS011;22699;51.034;3.730;2023-03-14T08:23:56;9.55;;;3.97;;
36715;SDS011;22699;51.034;3.730;2023-03-14T08:26:22;7.07;;;3.13;;
36715;SDS011;22699;51.034;3.730;2023-03-14T08:28:48;5.88;;;3.38;;
36715;SDS011;22699;51.034;3.730;2023-03-14T08:31:15;7.00;;;3.60;;
36715;SDS011;22699;51.034;3.730;2023-03-14T08:33:40;4.80;;;2.42;;
36715;SDS011;22699;51.034;3.730;2023-03-14T08:36:06;4.43;;;2.67;;
36715;SDS011;22699;51.034;3.730;2023-03-14T08:38:32;6.18;;;2.92;;
36715;SDS011;22699;51.034;3.730;2023-03-14T08:40:58;4.50;;;2.45;;
36715;SDS011;22699;51.034;3.730;2023-03-14T08:43:27;18.70;;;7.75;;
36715;SDS011;22699;51.034;3.730;2023-03-14T08:45:53;10.18;;;3.42;;
36715;SDS011;22699;51.034;3.730;2023-03-14T08:48:22;8.32;;;3.58;;
36715;SDS011;22699;51.034;3.730;2023-03-14T08:50:51;9.18;;;3.25;;
36715;SDS011;22699;51.034;3.730;2023-03-14T08:53:16;12.32;;;2.95;;
36715;SDS011;22699;51.034;3.730;2023-03-14T08:55:43;9.00;;;3.13;;
36715;SDS011;22699;51.034;3.730;2023-03-14T08:58:08;9.75;;;2.65;;
36715;SDS011;22699;51.034;3.730;2023-03-14T09:00:34;12.65;;;3.10;;
36715;SDS011;22699;51.034;3.730;2023-03-14T09:03:01;10.50;;;3.28;;
36715;SDS011;22699;51.034;3.730;2023-03-14T09:05:26;11.55;;;2.88;;
36715;SDS011;22699;51.034;3.730;2023-03-14T09:07:54;13.13;;;3.17;;
36715;SDS011;22699;51.034;3.730;2023-03-14T09:10:20;12.43;;;3.38;;
36715;SDS011;22699;51.034;3.730;2023-03-14T09:12:46;9.60;;;3.00;;
36715;SDS011;22699;51.034;3.730;2023-03-14T09:15:12;8.45;;;2.80;;
36715;SDS011;22699;51.034;3.730;2023-03-14T09:17:38;13.60;;;2.80;;
36715;SDS011;22699;51.034;3.730;2023-03-14T09:20:04;17.52;;;3.60;;
36715;SDS011;22699;51.034;3.730;2023-03-14T09:22:38;15.32;;;3.20;;
36715;SDS011;22699;51.034;3.730;2023-03-14T09:25:04;9.07;;;2.85;;
36715;SDS011;22699;51.034;3.730;2023-03-14T09:27:31;13.57;;;2.75;;
36715;SDS011;22699;51.034;3.730;2023-03-14T09:29:58;12.30;;;4.25;;
36715;SDS011;22699;51.034;3.730;2023-03-14T09:32:23;12.25;;;2.90;;
36715;SDS011;22699;51.034;3.730;2023-03-14T09:34:49;11.40;;;3.53;;
36715;SDS011;22699;51.034;3.730;2023-03-14T09:37:15;10.15;;;2.60;;
36715;SDS011;22699;51.034;3.730;2023-03-14T09:39:41;15.70;;;3.72;;
36715;SDS011;22699;51.034;3.730;2023-03-14T09:42:08;10.73;;;2.33;;
36715;SDS011;22699;51.034;3.730;2023-03-14T09:45:03;14.35;;;2.13;;
36715;SDS011;22699;51.034;3.730;2023-03-14T09:47:29;12.65;;;2.60;;
36715;SDS011;22699;51.034;3.730;2023-03-14T09:49:55;9.73;;;2.55;;
36715;SDS011;22699;51.034;3.730;2023-03-14T09:52:42;8.00;;;1.90;;
36715;SDS011;22699;51.034;3.730;2023-03-14T09:55:16;8.35;;;1.80;;
36715;SDS011;22699;51.034;3.730;2023-03-14T09:57:51;6.30;;;1.85;;
36715;SDS011;22699;51.034;3.730;2023-03-14T10:00:24;10.45;;;2.47;;
36715;SDS011;22699;51.034;3.730;2023-03-14T10:05:40;8.43;;;1.73;;
36715;SDS011;22699;51.034;3.730;2023-03-14T10:08:10;7.85;;;1.50;;
36715;SDS011;22699;51.034;3.730;2023-03-14T10:10:36;6.60;;;1.58;;
36715;SDS011;22699;51.034;3.730;2023-03-14T10:13:19;3.58;;;1.00;;
36715;SDS011;22699;51.034;3.730;2023-03-14T10:15:54;4.57;;;1.20;;
36715;SDS011;22699;51.034;3.730;2023-03-14T10:18:24;2.47;;;0.82;;
36715;SDS011;22699;51.034;3.730;2023-03-14T10:21:01;3.25;;;1.17;;
36715;SDS011;22699;51.034;3.730;2023-03-14T10:23:30;5.30;;;1.13;;
36715;SDS011;22699;51.034;3.730;2023-03-14T10:28:33;3.78;;;1.10;;
36715;SDS011;22699;51.034;3.730;2023-03-14T10:31:05;5.07;;;1.10;;
36715;SDS011;22699;51.034;3.730;2023-03-14T10:33:33;7.25;;;1.52;;
36715;SDS011;22699;51.034;3.730;2023-03-14T10:38:49;4.00;;;1.00;;
36715;SDS011;22699;51.034;3.730;2023-03-14T10:41:19;5.88;;;1.10;;
36715;SDS011;22699;51.034;3.730;2023-03-14T10:43:58;9.57;;;1.65;;
36715;SDS011;22699;51.034;3.730;2023-03-14T10:46:30;3.72;;;1.02;;
36715;SDS011;22699;51.034;3.730;2023-03-14T10:48:57;5.75;;;0.95;;
36715;SDS011;22699;51.034;3.730;2023-03-14T10:51:31;3.72;;;1.33;;
36715;SDS011;22699;51.034;3.730;2023-03-14T10:56:44;5.28;;;1.20;;
36715;SDS011;22699;51.034;3.730;2023-03-14T10:59:14;2.83;;;1.00;;
36715;SDS011;22699;51.034;3.730;2023-03-14T11:01:48;5.55;;;1.08;;
36715;SDS011;22699;51.034;3.730;2023-03-14T11:04:40;7.25;;;1.52;;
36715;SDS011;22699;51.034;3.730;2023-03-14T11:10:08;3.78;;;1.10;;
36715;SDS011;22699;51.034;3.730;2023-03-14T11:21:16;2.05;;;1.02;;
36715;SDS011;22699;51.034;3.730;2023-03-14T11:27:03;3.38;;;1.00;;
36715;SDS011;22699;51.034;3.730;2023-03-14T11:29:58;6.90;;;1.48;;
36715;SDS011;22699;51.034;3.730;2023-03-14T11:35:43;7.13;;;1.55;;
36715;SDS011;22699;51.034;3.730;2023-03-14T11:41:08;5.90;;;1.42;;
36715;SDS011;22699;51.034;3.730;2023-03-14T11:43:40;8.32;;;1.58;;
36715;SDS011;22699;51.034;3.730;2023-03-14T11:46:14;5.55;;;1.30;;
36715;SDS011;22699;51.034;3.730;2023-03-14T11:51:29;8.38;;;2.25;;
36715;SDS011;22699;51.034;3.730;2023-03-14T11:54:14;12.45;;;2.25;;
36715;SDS011;22699;51.034;3.730;2023-03-14T11:57:15;10.18;;;2.58;;
36715;SDS011;22699;51.034;3.730;2023-03-14T11:59:55;10.48;;;2.00;;
36715;SDS011;22699;51.034;3.730;2023-03-14T12:02:34;13.98;;;2.35;;
36715;SDS011;22699;51.034;3.730;2023-03-14T12:13:11;13.82;;;2.47;;
36715;SDS011;22699;51.034;3.730;2023-03-14T12:15:46;16.70;;;2.83;;
36715;SDS011;22699;51.034;3.730;2023-03-14T12:21:01;14.63;;;2.17;;
36715;SDS011;22699;51.034;3.730;2023-03-14T12:23:37;17.77;;;3.50;;
36715;SDS011;22699;51.034;3.730;2023-03-14T12:28:37;13.40;;;3.83;;
36715;SDS011;22699;51.034;3.730;2023-03-14T12:41:47;15.13;;;4.22;;
36715;SDS011;22699;51.034;3.730;2023-03-14T12:49:43;16.33;;;3.22;;
36715;SDS011;22699;51.034;3.730;2023-03-14T12:52:14;16.00;;;2.97;;
36715;SDS011;22699;51.034;3.730;2023-03-14T12:54:51;23.42;;;3.85;;
36715;SDS011;22699;51.034;3.730;2023-03-14T13:02:41;16.73;;;3.60;;
36715;SDS011;22699;51.034;3.730;2023-03-14T13:12:51;14.85;;;3.25;;
36715;SDS011;22699;51.034;3.730;2023-03-14T13:15:38;9.18;;;3.00;;
36715;SDS011;22699;51.034;3.730;2023-03-14T13:18:15;9.68;;;2.25;;
36715;SDS011;22699;51.034;3.730;2023-03-14T13:20:58;12.77;;;2.35;;
36715;SDS011;22699;51.034;3.730;2023-03-14T13:23:29;12.82;;;2.30;;
36715;SDS011;22699;51.034;3.730;2023-03-14T13:25:56;18.02;;;2.75;;
36715;SDS011;22699;51.034;3.730;2023-03-14T13:28:24;13.70;;;3.00;;
36715;SDS011;22699;51.034;3.730;2023-03-14T13:30:50;11.02;;;2.40;;
36715;SDS011;22699;51.034;3.730;2023-03-14T13:33:22;18.73;;;2.72;;
36715;SDS011;22699;51.034;3.730;2023-03-14T13:35:50;13.35;;;1.98;;
36715;SDS011;22699;51.034;3.730;2023-03-14T13:38:22;18.15;;;3.10;;
36715;SDS011;22699;51.034;3.730;2023-03-14T13:40:56;13.40;;;2.00;;
36715;SDS011;22699;51.034;3.730;2023-03-14T13:43:36;14.23;;;2.42;;
36715;SDS011;22699;51.034;3.730;2023-03-14T13:46:13;15.03;;;2.80;;
36715;SDS011;22699;51.034;3.730;2023-03-14T13:48:47;11.98;;;2.58;;
36715;SDS011;22699;51.034;3.730;2023-03-14T13:51:16;14.25;;;3.03;;
36715;SDS011;22699;51.034;3.730;2023-03-14T13:53:45;11.25;;;2.38;;
36715;SDS011;22699;51.034;3.730;2023-03-14T13:56:20;5.63;;;1.65;;
36715;SDS011;22699;51.034;3.730;2023-03-14T13:58:48;14.85;;;2.80;;
36715;SDS011;22699;51.034;3.730;2023-03-14T14:03:43;15.73;;;1.98;;
36715;SDS011;22699;51.034;3.730;2023-03-14T14:09:01;7.05;;;1.88;;
36715;SDS011;22699;51.034;3.730;2023-03-14T14:11:50;6.38;;;1.30;;
36715;SDS011;22699;51.034;3.730;2023-03-14T14:14:31;5.43;;;1.05;;
36715;SDS011;22699;51.034;3.730;2023-03-14T14:17:00;3.55;;;0.90;;
36715;SDS011;22699;51.034;3.730;2023-03-14T14:19:30;7.00;;;1.17;;
36715;SDS011;22699;51.034;3.730;2023-03-14T14:21:59;3.93;;;1.07;;
36715;SDS011;22699;51.034;3.730;2023-03-14T14:24:28;6.32;;;0.90;;
36715;SDS011;22699;51.034;3.730;2023-03-14T14:27:08;3.58;;;1.00;;
36715;SDS011;22699;51.034;3.730;2023-03-14T14:29:43;2.95;;;0.77;;
36715;SDS011;22699;51.034;3.730;2023-03-14T14:34:55;4.90;;;1.20;;
36715;SDS011;22699;51.034;3.730;2023-03-14T14:37:24;6.13;;;1.42;;
36715;SDS011;22699;51.034;3.730;2023-03-14T14:39:53;2.08;;;0.90;;
36715;SDS011;22699;51.034;3.730;2023-03-14T14:42:25;0.80;;;0.60;;
36715;SDS011;22699;51.034;3.730;2023-03-14T14:44:56;0.90;;;0.52;;
36715;SDS011;22699;51.034;3.730;2023-03-14T14:47:26;3.55;;;0.50;;
36715;SDS011;22699;51.034;3.730;2023-03-14T14:49:54;5.50;;;0.90;;
36715;SDS011;22699;51.034;3.730;2023-03-14T14:52:37;2.63;;;0.80;;
36715;SDS011;22699;51.034;3.730;2023-03-14T14:55:17;6.38;;;1.52;;
36715;SDS011;22699;51.034;3.730;2023-03-14T14:57:54;1.33;;;0.63;;
36715;SDS011;22699;51.034;3.730;2023-03-14T15:00:22;4.38;;;1.85;;
36715;SDS011;22699;51.034;3.730;2023-03-14T15:02:59;6.63;;;1.25;;
36715;SDS011;22699;51.034;3.730;2023-03-14T15:05:26;7.97;;;1.60;;
36715;SDS011;22699;51.034;3.730;2023-03-14T15:07:55;5.13;;;1.20;;
36715;SDS011;22699;51.034;3.730;2023-03-14T15:10:22;2.13;;;0.65;;
36715;SDS011;22699;51.034;3.730;2023-03-14T15:15:18;5.70;;;0.98;;
36715;SDS011;22699;51.034;3.730;2023-03-14T15:17:44;10.05;;;1.20;;
36715;SDS011;22699;51.034;3.730;2023-03-14T15:20:12;8.07;;;1.25;;
36715;SDS011;22699;51.034;3.730;2023-03-14T15:22:40;4.72;;;1.00;;
36715;SDS011;22699;51.034;3.730;2023-03-14T15:25:06;5.63;;;1.20;;
36715;SDS011;22699;51.034;3.730;2023-03-14T15:27:33;8.85;;;1.42;;
36715;SDS011;22699;51.034;3.730;2023-03-14T15:29:59;5.53;;;1.42;;
36715;SDS011;22699;51.034;3.730;2023-03-14T15:32:27;7.55;;;1.55;;
36715;SDS011;22699;51.034;3.730;2023-03-14T15:34:55;6.10;;;1.10;;
36715;SDS011;22699;51.034;3.730;2023-03-14T15:37:21;5.60;;;1.05;;
36715;SDS011;22699;51.034;3.730;2023-03-14T15:39:48;6.35;;;1.30;;
36715;SDS011;22699;51.034;3.730;2023-03-14T15:42:14;4.68;;;1.40;;
36715;SDS011;22699;51.034;3.730;2023-03-14T15:44:40;4.85;;;1.52;;
36715;SDS011;22699;51.034;3.730;2023-03-14T15:47:08;6.10;;;1.90;;
36715;SDS011;22699;51.034;3.730;2023-03-14T15:49:36;2.22;;;0.88;;
36715;SDS011;22699;51.034;3.730;2023-03-14T15:52:02;5.40;;;1.42;;
36715;SDS011;22699;51.034;3.730;2023-03-14T15:54:28;7.45;;;1.80;;
36715;SDS011;22699;51.034;3.730;2023-03-14T15:56:54;6.72;;;1.40;;
36715;SDS011;22699;51.034;3.730;2023-03-14T15:59:21;15.02;;;2.00;;
36715;SDS011;22699;51.034;3.730;2023-03-14T16:01:49;9.18;;;1.30;;
36715;SDS011;22699;51.034;3.730;2023-03-14T16:04:15;5.38;;;1.50;;
36715;SDS011;22699;51.034;3.730;2023-03-14T16:06:41;14.02;;;2.83;;
36715;SDS011;22699;51.034;3.730;2023-03-14T16:09:08;8.32;;;1.73;;
36715;SDS011;22699;51.034;3.730;2023-03-14T16:11:35;13.52;;;2.17;;
36715;SDS011;22699;51.034;3.730;2023-03-14T16:14:01;13.02;;;2.38;;
36715;SDS011;22699;51.034;3.730;2023-03-14T16:16:29;8.43;;;1.33;;
36715;SDS011;22699;51.034;3.730;2023-03-14T16:18:54;10.25;;;1.70;;
36715;SDS011;22699;51.034;3.730;2023-03-14T16:21:20;8.18;;;2.13;;
36715;SDS011;22699;51.034;3.730;2023-03-14T16:23:47;8.82;;;1.73;;
36715;SDS011;22699;51.034;3.730;2023-03-14T16:26:14;12.18;;;1.75;;
36715;SDS011;22699;51.034;3.730;2023-03-14T16:28:42;11.65;;;2.05;;
36715;SDS011;22699;51.034;3.730;2023-03-14T16:31:13;9.93;;;2.55;;
36715;SDS011;22699;51.034;3.730;2023-03-14T16:33:41;12.05;;;1.92;;
36715;SDS011;22699;51.034;3.730;2023-03-14T16:36:10;11.43;;;1.40;;
36715;SDS011;22699;51.034;3.730;2023-03-14T16:38:37;9.63;;;2.35;;
36715;SDS011;22699;51.034;3.730;2023-03-14T16:41:06;13.20;;;1.90;;
36715;SDS011;22699;51.034;3.730;2023-03-14T16:43:35;9.85;;;1.55;;
36715;SDS011;22699;51.034;3.730;2023-03-14T16:46:04;7.75;;;1.40;;
36715;SDS011;22699;51.034;3.730;2023-03-14T16:48:33;7.93;;;2.33;;